sensor_id;sensor_type;location;lat;lon;timestamp;pressure;altitude;pressure_sealevel;temperature;humidity
56414;BME280;42318;48.452;19.526;2023-04-21T00:01:34;98315.72;;;20.77;50.99
56414;BME280;42318;48.452;19.526;2023-04-21T00:09:05;98296.63;;;20.72;51.19
56414;BME280;42318;48.452;19.526;2023-04-21T00:16:36;98301.81;;;20.74;50.77
56414;BME280;42318;48.452;19.526;2023-04-21T00:24:07;98308.06;;;20.74;50.71
56414;BME280;42318;48.452;19.526;2023-04-21T00:31:38;98306.16;;;20.75;50.50
56414;BME280;42318;48.452;19.526;2023-04-21T00:39:08;98307.53;;;20.72;50.52
56414;BME280;42318;48.452;19.526;2023-04-21T00:46:40;98292.25;;;20.66;50.92
56414;BME280;42318;48.452;19.526;2023-04-21T00:54:13;98299.63;;;20.70;50.83
56414;BME280;42318;48.452;19.526;2023-04-21T01:01:44;98312.41;;;20.70;50.68
56414;BME280;42318;48.452;19.526;2023-04-21T01:09:15;98306.16;;;20.69;50.83
56414;BME280;42318;48.452;19.526;2023-04-21T01:16:46;98305.06;;;20.70;50.42
56414;BME280;42318;48.452;19.526;2023-04-21T01:24:17;98307.53;;;20.72;50.38
56414;BME280;42318;48.452;19.526;2023-04-21T01:31:47;98301.00;;;20.73;50.23
56414;BME280;42318;48.452;19.526;2023-04-21T01:39:18;98299.91;;;20.74;50.33
56414;BME280;42318;48.452;19.526;2023-04-21T01:46:49;98307.81;;;20.76;50.79
56414;BME280;42318;48.452;19.526;2023-04-21T01:54:20;98300.69;;;20.69;50.32
56414;BME280;42318;48.452;19.526;2023-04-21T02:01:51;98303.41;;;20.69;50.58
56414;BME280;42318;48.452;19.526;2023-04-21T02:09:21;98310.50;;;20.70;50.56
56414;BME280;42318;48.452;19.526;2023-04-21T02:16:52;98302.03;;;20.67;50.78
56414;BME280;42318;48.452;19.526;2023-04-21T02:24:23;98275.63;;;20.62;50.63
56414;BME280;42318;48.452;19.526;2023-04-21T02:31:54;98297.69;;;20.66;50.76
56414;BME280;42318;48.452;19.526;2023-04-21T02:39:25;98301.75;;;20.63;50.74
56414;BME280;42318;48.452;19.526;2023-04-21T02:46:56;98297.66;;;20.61;50.58
56414;BME280;42318;48.452;19.526;2023-04-21T02:54:26;98293.56;;;20.58;50.50
56414;BME280;42318;48.452;19.526;2023-04-21T03:01:57;98302.00;;;20.57;50.62
56414;BME280;42318;48.452;19.526;2023-04-21T03:09:28;98313.41;;;20.54;50.56
56414;BME280;42318;48.452;19.526;2023-04-21T03:16:58;98297.88;;;20.49;50.70
56414;BME280;42318;48.452;19.526;2023-04-21T03:24:29;98300.31;;;20.46;50.62
56414;BME280;42318;48.452;19.526;2023-04-21T03:32:00;98315.56;;;20.47;50.87
56414;BME280;42318;48.452;19.526;2023-04-21T03:39:31;98309.56;;;20.45;50.73
56414;BME280;42318;48.452;19.526;2023-04-21T03:47:02;98314.19;;;20.44;50.64
56414;BME280;42318;48.452;19.526;2023-04-21T03:54:35;98306.28;;;20.43;50.95
56414;BME280;42318;48.452;19.526;2023-04-21T04:02:06;98321.53;;;20.44;50.88
56414;BME280;42318;48.452;19.526;2023-04-21T04:09:37;98330.78;;;20.43;50.73
56414;BME280;42318;48.452;19.526;2023-04-21T04:17:07;98337.84;;;20.44;50.96
56414;BME280;42318;48.452;19.526;2023-04-21T04:24:39;98318.50;;;20.40;50.80
56414;BME280;42318;48.452;19.526;2023-04-21T04:32:09;98329.13;;;20.42;50.82
56414;BME280;42318;48.452;19.526;2023-04-21T04:39:40;98334.00;;;20.40;50.70
56414;BME280;42318;48.452;19.526;2023-04-21T04:47:11;98331.53;;;20.38;50.92
56414;BME280;42318;48.452;19.526;2023-04-21T04:54:42;98328.75;;;20.33;51.10
56414;BME280;42318;48.452;19.526;2023-04-21T05:02:13;98329.81;;;20.32;51.10
56414;BME280;42318;48.452;19.526;2023-04-21T05:09:44;98322.47;;;20.32;50.60
56414;BME280;42318;48.452;19.526;2023-04-21T05:17:15;98329.00;;;20.31;50.83
56414;BME280;42318;48.452;19.526;2023-04-21T05:24:46;98327.38;;;20.30;50.89
56414;BME280;42318;48.452;19.526;2023-04-21T05:32:16;98339.88;;;20.31;51.10
56414;BME280;42318;48.452;19.526;2023-04-21T05:39:47;98325.72;;;20.29;51.02
56414;BME280;42318;48.452;19.526;2023-04-21T05:47:18;98331.72;;;20.31;50.87
56414;BME280;42318;48.452;19.526;2023-04-21T05:54:49;98328.44;;;20.29;50.73
56414;BME280;42318;48.452;19.526;2023-04-21T06:02:20;98324.09;;;20.28;50.92
56414;BME280;42318;48.452;19.526;2023-04-21T06:09:51;98334.16;;;20.28;50.77
56414;BME280;42318;48.452;19.526;2023-04-21T06:17:22;98330.09;;;20.30;50.95
56414;BME280;42318;48.452;19.526;2023-04-21T06:24:53;98305.03;;;20.28;50.83
56414;BME280;42318;48.452;19.526;2023-04-21T06:32:24;98319.22;;;20.35;50.62
56414;BME280;42318;48.452;19.526;2023-04-21T06:39:55;98314.34;;;20.37;50.93
56414;BME280;42318;48.452;19.526;2023-04-21T06:47:26;98306.81;;;20.40;50.98
56414;BME280;42318;48.452;19.526;2023-04-21T06:54:57;98312.53;;;20.43;50.53
56414;BME280;42318;48.452;19.526;2023-04-21T07:02:27;98311.19;;;20.46;50.94
56414;BME280;42318;48.452;19.526;2023-04-21T07:09:58;98308.75;;;20.49;51.03
56414;BME280;42318;48.452;19.526;2023-04-21T07:17:29;98313.38;;;20.49;51.11
56414;BME280;42318;48.452;19.526;2023-04-21T07:25:04;98301.97;;;20.52;50.80
56414;BME280;42318;48.452;19.526;2023-04-21T07:32:37;98294.09;;;20.55;50.79
56414;BME280;42318;48.452;19.526;2023-04-21T07:40:09;98298.75;;;20.60;51.09
56414;BME280;42318;48.452;19.526;2023-04-21T07:47:40;98293.34;;;20.70;50.35
56414;BME280;42318;48.452;19.526;2023-04-21T07:55:10;98289.00;;;20.74;50.07
56414;BME280;42318;48.452;19.526;2023-04-21T08:02:41;98285.75;;;20.77;50.13
56414;BME280;42318;48.452;19.526;2023-04-21T08:10:12;98272.19;;;20.82;50.24
56414;BME280;42318;48.452;19.526;2023-04-21T08:17:43;98277.63;;;20.82;50.23
56414;BME280;42318;48.452;19.526;2023-04-21T08:25:14;98264.25;;;20.81;49.99
56414;BME280;42318;48.452;19.526;2023-04-21T08:32:45;98266.16;;;20.80;50.03
56414;BME280;42318;48.452;19.526;2023-04-21T08:40:16;98262.88;;;20.78;50.12
56414;BME280;42318;48.452;19.526;2023-04-21T08:47:47;98262.38;;;20.81;50.19
56414;BME280;42318;48.452;19.526;2023-04-21T08:55:19;98251.50;;;20.81;50.19
56414;BME280;42318;48.452;19.526;2023-04-21T09:02:55;98248.50;;;20.83;49.95
56414;BME280;42318;48.452;19.526;2023-04-21T09:10:26;98246.88;;;20.82;50.10
56414;BME280;42318;48.452;19.526;2023-04-21T09:17:57;98244.97;;;20.82;50.02
56414;BME280;42318;48.452;19.526;2023-04-21T09:25:30;98234.56;;;20.79;50.12
56414;BME280;42318;48.452;19.526;2023-04-21T09:33:02;98224.78;;;20.78;49.94
56414;BME280;42318;48.452;19.526;2023-04-21T09:40:33;98217.69;;;20.77;50.23
56414;BME280;42318;48.452;19.526;2023-04-21T09:48:06;98218.25;;;20.79;50.10
56414;BME280;42318;48.452;19.526;2023-04-21T09:55:40;98222.03;;;20.78;50.18
56414;BME280;42318;48.452;19.526;2023-04-21T10:03:11;98223.41;;;20.76;49.95
56414;BME280;42318;48.452;19.526;2023-04-21T10:10:44;98218.78;;;20.76;50.09
56414;BME280;42318;48.452;19.526;2023-04-21T10:25:48;98213.38;;;20.81;49.92
56414;BME280;42318;48.452;19.526;2023-04-21T10:33:22;98212.28;;;20.82;49.67
56414;BME280;42318;48.452;19.526;2023-04-21T10:40:53;98204.66;;;20.84;49.35
56414;BME280;42318;48.452;19.526;2023-04-21T10:48:25;98185.63;;;20.89;49.64
56414;BME280;42318;48.452;19.526;2023-04-21T10:55:56;98176.09;;;20.92;49.49
56414;BME280;42318;48.452;19.526;2023-04-21T11:03:33;98169.28;;;20.94;49.43
56414;BME280;42318;48.452;19.526;2023-04-21T11:11:05;98167.09;;;20.96;49.60
56414;BME280;42318;48.452;19.526;2023-04-21T11:18:41;98164.38;;;21.01;49.55
56414;BME280;42318;48.452;19.526;2023-04-21T11:26:12;98164.66;;;21.00;49.50
56414;BME280;42318;48.452;19.526;2023-04-21T11:33:43;98158.41;;;20.99;49.74
56414;BME280;42318;48.452;19.526;2023-04-21T11:41:21;98146.97;;;21.08;51.86
56414;BME280;42318;48.452;19.526;2023-04-21T11:48:59;98147.25;;;21.11;51.67
56414;BME280;42318;48.452;19.526;2023-04-21T11:56:34;98137.72;;;21.14;51.32
56414;BME280;42318;48.452;19.526;2023-04-21T12:04:12;98139.59;;;21.08;51.55
56414;BME280;42318;48.452;19.526;2023-04-21T12:11:47;98133.34;;;21.02;51.44
56414;BME280;42318;48.452;19.526;2023-04-21T12:19:35;98118.09;;;21.01;52.26
56414;BME280;42318;48.452;19.526;2023-04-21T12:27:07;98121.34;;;21.04;51.45
56414;BME280;42318;48.452;19.526;2023-04-21T12:34:38;98118.09;;;21.01;51.75
56414;BME280;42318;48.452;19.526;2023-04-21T12:42:09;98120.25;;;20.99;51.60
56414;BME280;42318;48.452;19.526;2023-04-21T12:49:40;98109.38;;;20.99;51.68
56414;BME280;42318;48.452;19.526;2023-04-21T12:57:11;98108.81;;;21.02;51.46
56414;BME280;42318;48.452;19.526;2023-04-21T13:04:42;98091.94;;;21.06;51.28
56414;BME280;42318;48.452;19.526;2023-04-21T13:12:12;98088.94;;;21.17;51.05
56414;BME280;42318;48.452;19.526;2023-04-21T13:19:43;98087.31;;;21.21;51.04
56414;BME280;42318;48.452;19.526;2023-04-21T13:27:14;98079.41;;;21.20;50.93
56414;BME280;42318;48.452;19.526;2023-04-21T13:34:45;98068.50;;;21.05;51.02
56414;BME280;42318;48.452;19.526;2023-04-21T13:42:16;98072.31;;;20.98;51.38
56414;BME280;42318;48.452;19.526;2023-04-21T13:49:47;98060.34;;;20.94;51.46
56414;BME280;42318;48.452;19.526;2023-04-21T13:57:19;98059.25;;;21.00;51.24
56414;BME280;42318;48.452;19.526;2023-04-21T14:04:51;98051.34;;;21.04;51.16
56414;BME280;42318;48.452;19.526;2023-04-21T14:12:23;98054.34;;;21.13;50.58
56414;BME280;42318;48.452;19.526;2023-04-21T14:19:55;98046.19;;;21.08;51.03
56414;BME280;42318;48.452;19.526;2023-04-21T14:27:27;98030.94;;;21.01;51.05
56414;BME280;42318;48.452;19.526;2023-04-21T14:34:59;98034.75;;;20.90;51.31
56414;BME280;42318;48.452;19.526;2023-04-21T14:42:30;98030.41;;;20.84;51.30
56414;BME280;42318;48.452;19.526;2023-04-21T14:50:00;98016.47;;;20.81;51.72
56414;BME280;42318;48.452;19.526;2023-04-21T14:57:31;98015.66;;;20.75;51.34
56414;BME280;42318;48.452;19.526;2023-04-21T15:05:02;98007.22;;;20.77;51.23
56414;BME280;42318;48.452;19.526;2023-04-21T15:12:33;98005.59;;;20.76;51.37
56414;BME280;42318;48.452;19.526;2023-04-21T15:20:04;98001.50;;;20.73;51.59
56414;BME280;42318;48.452;19.526;2023-04-21T15:27:35;98002.06;;;20.70;51.63
56414;BME280;42318;48.452;19.526;2023-04-21T15:35:07;98008.03;;;20.67;51.40
56414;BME280;42318;48.452;19.526;2023-04-21T15:42:37;98010.75;;;20.62;51.31
56414;BME280;42318;48.452;19.526;2023-04-21T15:50:09;98016.22;;;20.62;51.33
56414;BME280;42318;48.452;19.526;2023-04-21T15:57:40;98011.31;;;20.59;51.56
56414;BME280;42318;48.452;19.526;2023-04-21T16:05:10;98009.66;;;20.58;51.21
56414;BME280;42318;48.452;19.526;2023-04-21T16:12:41;98005.59;;;20.55;51.44
56414;BME280;42318;48.452;19.526;2023-04-21T16:20:13;98004.78;;;20.55;51.35
56414;BME280;42318;48.452;19.526;2023-04-21T16:27:44;98008.56;;;20.54;51.45
56414;BME280;42318;48.452;19.526;2023-04-21T16:35:15;98006.94;;;20.53;51.53
56414;BME280;42318;48.452;19.526;2023-04-21T16:42:46;98002.59;;;20.52;51.61
56414;BME280;42318;48.452;19.526;2023-04-21T16:50:18;98000.13;;;20.50;51.44
56414;BME280;42318;48.452;19.526;2023-04-21T16:57:49;97996.88;;;20.48;51.38
56414;BME280;42318;48.452;19.526;2023-04-21T17:05:22;97999.06;;;20.46;51.56
56414;BME280;42318;48.452;19.526;2023-04-21T17:12:52;97997.69;;;20.44;51.45
56414;BME280;42318;48.452;19.526;2023-04-21T17:20:23;98007.75;;;20.43;51.44
56414;BME280;42318;48.452;19.526;2023-04-21T17:27:54;98008.03;;;20.42;51.52
56414;BME280;42318;48.452;19.526;2023-04-21T17:35:25;98007.13;;;20.36;51.69
56414;BME280;42318;48.452;19.526;2023-04-21T17:42:56;98013.16;;;20.38;51.35
56414;BME280;42318;48.452;19.526;2023-04-21T17:50:27;98010.13;;;20.34;51.59
56414;BME280;42318;48.452;19.526;2023-04-21T17:57:57;98022.13;;;20.38;51.32
56414;BME280;42318;48.452;19.526;2023-04-21T18:05:28;98021.56;;;20.31;51.40
56414;BME280;42318;48.452;19.526;2023-04-21T18:12:59;98045.78;;;20.33;51.56
56414;BME280;42318;48.452;19.526;2023-04-21T18:20:30;98048.75;;;20.31;51.47
56414;BME280;42318;48.452;19.526;2023-04-21T18:28:01;98045.50;;;20.29;51.55
56414;BME280;42318;48.452;19.526;2023-04-21T18:35:32;98050.66;;;20.26;51.44
56414;BME280;42318;48.452;19.526;2023-04-21T18:43:03;98059.09;;;20.24;51.53
56414;BME280;42318;48.452;19.526;2023-04-21T18:50:34;98062.88;;;20.23;51.35
56414;BME280;42318;48.452;19.526;2023-04-21T18:58:09;98071.31;;;20.22;51.43
56414;BME280;42318;48.452;19.526;2023-04-21T19:05:39;98078.94;;;20.20;51.61
56414;BME280;42318;48.452;19.526;2023-04-21T19:13:11;98079.47;;;20.17;51.67
56414;BME280;42318;48.452;19.526;2023-04-21T19:20:42;98074.84;;;20.17;51.44
56414;BME280;42318;48.452;19.526;2023-04-21T19:28:12;98081.09;;;20.18;51.43
56414;BME280;42318;48.452;19.526;2023-04-21T19:35:43;98084.34;;;20.15;51.58
56414;BME280;42318;48.452;19.526;2023-04-21T19:43:14;98090.59;;;20.15;51.56
56414;BME280;42318;48.452;19.526;2023-04-21T19:50:45;98093.84;;;20.12;51.43
56414;BME280;42318;48.452;19.526;2023-04-21T19:58:16;98089.50;;;20.11;51.68
56414;BME280;42318;48.452;19.526;2023-04-21T20:05:47;98096.03;;;20.10;51.59
56414;BME280;42318;48.452;19.526;2023-04-21T20:13:19;98112.63;;;20.08;51.73
56414;BME280;42318;48.452;19.526;2023-04-21T20:20:50;98112.06;;;20.06;51.71
56414;BME280;42318;48.452;19.526;2023-04-21T20:28:21;98115.88;;;20.05;51.54
56414;BME280;42318;48.452;19.526;2023-04-21T20:35:52;98112.59;;;20.03;51.64
56414;BME280;42318;48.452;19.526;2023-04-21T20:43:23;98116.41;;;20.02;51.54
56414;BME280;42318;48.452;19.526;2023-04-21T20:50:55;98119.38;;;20.01;51.83
56414;BME280;42318;48.452;19.526;2023-04-21T20:58:26;98109.84;;;19.98;51.70
56414;BME280;42318;48.452;19.526;2023-04-21T21:05:57;98122.38;;;19.99;51.81
56414;BME280;42318;48.452;19.526;2023-04-21T21:13:27;98117.19;;;19.98;51.45
56414;BME280;42318;48.452;19.526;2023-04-21T21:20:58;98121.00;;;19.97;51.57
56414;BME280;42318;48.452;19.526;2023-04-21T21:28:29;98121.25;;;19.95;51.68
56414;BME280;42318;48.452;19.526;2023-04-21T21:36:00;98134.03;;;19.95;51.73
56414;BME280;42318;48.452;19.526;2023-04-21T21:43:31;98126.13;;;19.93;51.65
56414;BME280;42318;48.452;19.526;2023-04-21T21:51:02;98144.31;;;19.93;51.79
56414;BME280;42318;48.452;19.526;2023-04-21T21:58:35;98133.16;;;19.89;51.54
56414;BME280;42318;48.452;19.526;2023-04-21T22:06:06;98149.22;;;19.91;51.60
56414;BME280;42318;48.452;19.526;2023-04-21T22:13:37;98143.75;;;19.86;51.58
56414;BME280;42318;48.452;19.526;2023-04-21T22:21:08;98147.28;;;19.86;51.63
56414;BME280;42318;48.452;19.526;2023-04-21T22:28:38;98142.94;;;19.85;51.67
56414;BME280;42318;48.452;19.526;2023-04-21T22:36:11;98145.66;;;19.85;51.45
56414;BME280;42318;48.452;19.526;2023-04-21T22:43:41;98145.91;;;19.84;51.51
56414;BME280;42318;48.452;19.526;2023-04-21T22:51:12;98153.50;;;19.82;51.46
56414;BME280;42318;48.452;19.526;2023-04-21T22:58:43;98148.59;;;19.79;51.35
56414;BME280;42318;48.452;19.526;2023-04-21T23:06:14;98157.31;;;19.81;51.76
56414;BME280;42318;48.452;19.526;2023-04-21T23:13:45;98158.66;;;19.78;51.53
56414;BME280;42318;48.452;19.526;2023-04-21T23:21:16;98160.81;;;19.76;51.65
56414;BME280;42318;48.452;19.526;2023-04-21T23:28:47;98173.59;;;19.75;51.50
56414;BME280;42318;48.452;19.526;2023-04-21T23:36:17;98156.44;;;19.70;51.70
56414;BME280;42318;48.452;19.526;2023-04-21T23:43:48;98156.72;;;19.73;51.53
56414;BME280;42318;48.452;19.526;2023-04-21T23:51:19;98154.25;;;19.72;51.37
56414;BME280;42318;48.452;19.526;2023-04-21T23:58:50;98154.53;;;19.70;51.41
